Time;durP1;ratioP1;P1;durP2;ratioP2;P2;SDS_P1;SDS_P2;PMS_P1;PMS_P2;Temp;Humidity;BMP_temperature;BMP_pressure;BME280_temperature;BME280_humidity;BME280_pressure;Samples;Min_cycle;Max_cycle;Signal;HPM_P1;HPM_P2
2023/10/06 00:03:57;;;;;;;14.93;4.15;;;;;;;11.69;100.00;100869.34;12162437;19;20019;-80
2023/10/06 00:07:59;;;;;;;14.15;5.15;;;;;;;11.67;100.00;100872.34;12183395;19;20073;-79
2023/10/06 00:12:05;;;;;;;13.80;3.92;;;;;;;11.63;100.00;100860.09;12189505;19;20663;-80
2023/10/06 00:16:07;;;;;;;11.95;4.25;;;;;;;11.61;100.00;100859.47;12162910;19;20432;-80
2023/10/06 00:20:26;;;;;;;13.80;4.15;;;;;;;11.58;100.00;100859.94;12177474;19;20015;-80
2023/10/06 00:24:28;;;;;;;9.65;4.60;;;;;;;11.55;100.00;100865.91;12187943;19;20018;-79
2023/10/06 00:28:32;;;;;;;16.87;4.63;;;;;;;11.55;100.00;100865.91;12166755;19;20078;-80
2023/10/06 00:32:36;;;;;;;10.57;4.20;;;;;;;11.53;100.00;100868.91;12189120;19;20014;-80
2023/10/06 00:36:41;;;;;;;9.52;3.85;;;;;;;11.54;100.00;100869.72;12203502;19;20372;-80
2023/10/06 00:40:50;;;;;;;14.95;4.18;;;;;;;11.52;100.00;100869.16;12173035;19;21396;-79
2023/10/06 00:44:53;;;;;;;11.77;4.15;;;;;;;11.51;100.00;100870.19;12197377;19;20007;-80
2023/10/06 00:48:59;;;;;;;11.95;4.22;;;;;;;11.53;100.00;100873.56;12171786;19;20038;-79
2023/10/06 00:53:04;;;;;;;10.05;4.15;;;;;;;11.52;100.00;100866.38;12191622;19;20006;-80
2023/10/06 00:57:11;;;;;;;13.13;5.00;;;;;;;11.51;100.00;100871.06;12198931;19;20510;-80
2023/10/06 01:01:16;;;;;;;12.88;4.88;;;;;;;11.48;100.00;100873.41;12159227;19;20020;-80
2023/10/06 01:05:19;;;;;;;13.65;5.07;;;;;;;11.46;100.00;100870.91;12197189;19;20520;-80
2023/10/06 01:09:30;;;;;;;12.93;5.13;;;;;;;11.44;100.00;100870.28;12195914;19;20018;-80
2023/10/06 01:13:33;;;;;;;11.55;4.40;;;;;;;11.44;100.00;100870.28;12181643;19;20495;-80
2023/10/06 01:17:35;;;;;;;14.90;5.05;;;;;;;11.43;100.00;100870.53;12186628;19;20463;-81
2023/10/06 01:21:40;;;;;;;13.67;5.03;;;;;;;11.40;100.00;100871.81;12206511;19;20364;-80
2023/10/06 01:25:42;;;;;;;11.50;5.15;;;;;;;11.38;100.00;100863.75;12189489;19;21202;-80
2023/10/06 01:29:45;;;;;;;11.88;4.63;;;;;;;11.39;100.00;100857.19;12208623;19;20006;-79
2023/10/06 01:33:47;;;;;;;13.73;5.43;;;;;;;11.37;100.00;100856.56;12179516;19;20009;-79
2023/10/06 01:37:51;;;;;;;10.68;4.40;;;;;;;11.36;100.00;100865.94;12197204;19;20003;-79
2023/10/06 01:41:53;;;;;;;13.00;4.72;;;;;;;11.35;100.00;100861.47;12202868;19;20025;-79
2023/10/06 01:45:55;;;;;;;12.05;4.28;;;;;;;11.32;100.00;100861.91;12184721;19;20019;-79
2023/10/06 01:49:57;;;;;;;10.95;4.82;;;;;;;11.32;100.00;100861.91;12207187;19;20006;-80
2023/10/06 01:53:59;;;;;;;16.40;5.50;;;;;;;11.31;100.00;100857.47;12211625;19;20365;-80
2023/10/06 01:58:03;;;;;;;11.73;5.38;;;;;;;11.30;100.00;100846.66;12213609;19;20030;-80
2023/10/06 02:02:07;;;;;;;15.38;5.32;;;;;;;11.27;100.00;100847.13;12238479;19;20006;-80
2023/10/06 02:06:13;;;;;;;19.75;6.00;;;;;;;11.24;100.00;100842.91;12230340;19;20830;-80
2023/10/06 02:10:18;;;;;;;15.23;5.47;;;;;;;11.23;100.00;100843.16;12184305;19;20014;-80
2023/10/06 02:14:20;;;;;;;15.07;6.78;;;;;;;11.22;100.00;100836.78;12208078;19;20002;-80
2023/10/06 02:18:22;;;;;;;17.45;5.97;;;;;;;11.21;100.00;100832.31;12207643;19;20002;-80
2023/10/06 02:22:24;;;;;;;14.70;5.57;;;;;;;11.20;100.00;100827.88;12180982;19;20011;-80
2023/10/06 02:26:26;;;;;;;14.57;6.35;;;;;;;11.20;100.00;100829.81;12205788;19;20259;-80
2023/10/06 02:30:37;;;;;;;12.30;5.45;;;;;;;11.19;100.00;100823.44;12203504;19;20107;-80
2023/10/06 02:34:39;;;;;;;14.38;4.88;;;;;;;11.20;100.00;100822.38;12175097;19;20018;-79
2023/10/06 02:38:46;;;;;;;12.20;5.20;;;;;;;11.20;100.00;100824.28;12200408;19;20067;-80
2023/10/06 02:42:56;;;;;;;15.68;5.63;;;;;;;11.17;100.00;100831.09;12182976;19;20035;-80
2023/10/06 02:47:04;;;;;;;17.00;4.97;;;;;;;11.14;100.00;100837.91;12205071;19;21515;-79
2023/10/06 02:51:06;;;;;;;14.15;5.53;;;;;;;11.12;100.00;100840.09;12203024;19;20391;-81
2023/10/06 02:55:10;;;;;;;16.73;5.03;;;;;;;11.10;100.00;100836.69;12181758;19;20029;-80
2023/10/06 02:59:21;;;;;;;11.50;5.53;;;;;;;11.07;100.00;100826.13;12200612;19;20018;-80
2023/10/06 03:03:27;;;;;;;15.65;5.45;;;;;;;11.06;100.00;100821.66;12199727;19;20010;-80
2023/10/06 03:07:31;;;;;;;9.18;4.63;;;;;;;11.06;100.00;100823.56;12177690;19;20465;-79
2023/10/06 03:11:33;;;;;;;14.20;5.28;;;;;;;11.03;100.00;100833.16;12198650;19;20018;-80
2023/10/06 03:15:42;;;;;;;10.43;5.53;;;;;;;11.01;100.00;100823.44;12207051;19;20011;-79
2023/10/06 03:19:44;;;;;;;14.80;5.70;;;;;;;10.94;100.00;100829.84;12178047;19;20007;-80
2023/10/06 03:23:57;;;;;;;16.40;5.87;;;;;;;10.92;100.00;100834.75;12198810;19;20003;-80
2023/10/06 03:28:04;;;;;;;13.85;4.75;;;;;;;10.91;100.00;100843.25;12184562;19;20130;-80
2023/10/06 03:32:11;;;;;;;14.65;5.25;;;;;;;10.88;100.00;100833.50;12200263;19;20010;-80
2023/10/06 03:36:16;;;;;;;13.10;5.15;;;;;;;10.88;100.00;100824.41;12203086;19;20011;-80
2023/10/06 03:40:30;;;;;;;18.90;5.32;;;;;;;10.83;100.00;100824.25;12184269;19;20006;-80
2023/10/06 03:44:33;;;;;;;16.05;6.95;;;;;;;10.78;100.00;100832.34;12205608;19;20114;-80
2023/10/06 03:48:35;;;;;;;15.30;5.20;;;;;;;10.69;100.00;100838.16;12203447;19;20049;-80
2023/10/06 03:52:37;;;;;;;12.68;5.30;;;;;;;10.57;100.00;100830.84;12181113;19;20007;-80
2023/10/06 03:56:39;;;;;;;14.52;5.82;;;;;;;10.46;100.00;100827.72;12204076;19;20477;-80
2023/10/06 04:00:47;;;;;;;10.40;4.78;;;;;;;10.32;100.00;100830.81;12185462;19;20011;-80
2023/10/06 04:04:49;;;;;;;17.25;5.70;;;;;;;10.24;100.00;100834.66;12203134;19;20422;-80
2023/10/06 04:08:52;;;;;;;11.27;5.25;;;;;;;10.15;100.00;100828.59;12203818;19;20011;-80
2023/10/06 04:12:55;;;;;;;;;;;;;;;10.08;100.00;100826.94;12182112;19;20014;-80
2023/10/06 04:17:01;;;;;;;16.77;5.38;;;;;;;10.02;100.00;100832.28;12202712;19;20270;-80
2023/10/06 04:21:03;;;;;;;15.65;5.65;;;;;;;9.99;100.00;100816.19;12202905;19;20370;-80
2023/10/06 04:25:09;;;;;;;12.40;5.22;;;;;;;9.94;100.00;100824.28;12176980;19;20015;-80
2023/10/06 04:29:13;;;;;;;14.98;5.90;;;;;;;9.91;100.00;100819.22;12199033;19;20011;-79
2023/10/06 04:33:18;;;;;;;18.88;6.20;;;;;;;9.86;100.00;100821.78;12199089;19;20006;-80
2023/10/06 04:37:20;;;;;;;15.70;6.35;;;;;;;9.84;100.00;100825.81;12172490;19;20674;-80
2023/10/06 04:41:22;;;;;;;15.88;6.63;;;;;;;9.81;100.00;100832.59;12198436;19;20010;-80
2023/10/06 04:45:24;;;;;;;18.02;7.28;;;;;;;9.77;100.00;100840.44;12198098;19;20479;-80
2023/10/06 04:49:28;;;;;;;22.10;6.68;;;;;;;9.73;100.00;100841.13;12172951;19;20006;-80
2023/10/06 04:53:38;;;;;;;16.80;6.03;;;;;;;9.71;100.00;100833.06;12196886;19;20011;-80
2023/10/06 04:57:41;;;;;;;12.20;6.35;;;;;;;9.66;100.00;100835.63;12187022;19;20006;-81
2023/10/06 05:01:45;;;;;;;;;;;;;;;9.61;100.00;100832.72;12196585;19;20016;-80
2023/10/06 05:05:50;;;;;;;14.70;6.78;;;;;;;9.62;100.00;100837.13;12197185;19;20397;-79
2023/10/06 05:09:55;;;;;;;19.15;7.65;;;;;;;9.60;100.00;100836.50;12174103;19;20038;-80
2023/10/06 05:13:57;;;;;;;18.02;7.75;;;;;;;9.56;100.00;100827.84;12202060;19;20716;-80
2023/10/06 05:18:00;;;;;;;17.07;7.00;;;;;;;9.55;100.00;100830.84;12204153;19;20029;-80
2023/10/06 05:22:05;;;;;;;;;;;;;;;9.54;100.00;100832.72;12189545;19;20034;-80
2023/10/06 05:26:10;;;;;;;14.80;7.10;;;;;;;9.59;100.00;100832.91;12209721;19;19911;-79
2023/10/06 05:30:13;;;;;;;25.13;8.43;;;;;;;9.67;100.00;100847.50;12206646;19;20086;-80
2023/10/06 05:34:17;;;;;;;19.67;8.45;;;;;;;9.81;100.00;100855.47;12188514;19;20014;-79
2023/10/06 05:38:19;;;;;;;18.60;8.18;;;;;;;9.95;100.00;100859.00;12208965;19;20014;-81
2023/10/06 05:42:21;;;;;;;17.02;6.82;;;;;;;10.07;100.00;100870.16;12218763;19;20014;-80
2023/10/06 05:46:24;;;;;;;27.15;10.73;;;;;;;10.21;100.00;100871.75;12198430;19;20015;-80
2023/10/06 05:50:29;;;;;;;41.13;14.48;;;;;;;10.33;100.00;100869.19;12221295;19;20042;-81
2023/10/06 05:54:31;;;;;;;42.55;15.38;;;;;;;10.37;100.00;100875.91;12213501;19;20026;-79
2023/10/06 05:58:34;;;;;;;54.58;16.55;;;;;;;10.44;100.00;100870.34;12193594;19;20473;-80
2023/10/06 06:02:37;;;;;;;42.63;15.80;;;;;;;10.47;100.00;100875.44;12213906;19;20018;-80
2023/10/06 06:06:39;;;;;;;45.42;15.55;;;;;;;10.48;100.00;100871.63;12210272;19;20358;-81
2023/10/06 06:10:41;;;;;;;38.67;14.57;;;;;;;10.55;100.00;100866.03;12207890;19;20026;-79
2023/10/06 06:14:44;;;;;;;42.97;16.02;;;;;;;10.59;100.00;100870.91;12209337;19;20286;-80
2023/10/06 06:18:46;;;;;;;84.97;19.25;;;;;;;10.60;100.00;100864.31;12192825;19;20076;-80
2023/10/06 06:22:53;;;;;;;51.08;17.00;;;;;;;10.64;100.00;100850.91;12209921;19;20003;-80
2023/10/06 06:26:55;;;;;;;56.72;16.92;;;;;;;10.68;100.00;100849.41;12214517;19;20013;-80
2023/10/06 06:31:03;;;;;;;43.20;15.13;;;;;;;10.61;100.00;100856.88;12187023;19;20017;-80
2023/10/06 06:35:07;;;;;;;35.08;14.82;;;;;;;10.59;100.00;100870.03;12210779;19;20006;-80
2023/10/06 06:39:10;;;;;;;32.85;13.23;;;;;;;10.56;100.00;100862.22;12209201;19;20081;-80
2023/10/06 06:43:12;;;;;;;24.40;12.65;;;;;;;10.51;100.00;100871.16;12188717;19;20010;-80
2023/10/06 06:47:17;;;;;;;23.10;11.52;;;;;;;10.48;100.00;100874.38;12209431;19;20123;-80
2023/10/06 06:51:20;;;;;;;22.83;11.80;;;;;;;10.48;100.00;100872.47;12209509;19;20015;-80
2023/10/06 06:55:23;;;;;;;25.05;12.00;;;;;;;10.49;100.00;100868.63;12185748;19;20014;-80
2023/10/06 06:59:25;;;;;;;22.52;10.65;;;;;;;10.51;100.00;100856.56;12211869;19;20095;-81
2023/10/06 07:03:28;;;;;;;23.48;12.45;;;;;;;10.56;100.00;100862.22;12215118;19;20018;-80
2023/10/06 07:07:30;;;;;;;19.90;10.55;;;;;;;10.60;100.00;100857.97;12188913;19;20011;-80
2023/10/06 07:11:34;;;;;;;22.23;10.43;;;;;;;10.65;100.00;100861.72;12209422;19;20014;-80
2023/10/06 07:15:36;;;;;;;21.23;11.25;;;;;;;10.74;100.00;100865.06;12207944;19;20014;-80
2023/10/06 07:19:38;;;;;;;22.83;11.82;;;;;;;10.82;100.00;100867.50;12185286;19;20002;-80
2023/10/06 07:23:40;;;;;;;23.30;11.07;;;;;;;10.94;100.00;100868.44;12208786;19;20010;-80
2023/10/06 07:27:43;;;;;;;26.00;12.35;;;;;;;11.10;100.00;100877.25;12172476;19;20018;-79
2023/10/06 07:31:48;;;;;;;24.35;12.85;;;;;;;11.28;100.00;100887.47;12189968;19;20006;-80
2023/10/06 07:35:53;;;;;;;25.30;12.57;;;;;;;11.46;100.00;100875.59;12190603;19;20780;-80
2023/10/06 07:39:55;;;;;;;25.50;13.07;;;;;;;11.68;100.00;100887.84;12164443;19;20015;-80
2023/10/06 07:43:57;;;;;;;27.98;11.45;;;;;;;11.89;100.00;100885.69;12191834;19;20465;-80
2023/10/06 07:47:58;;;;;;;21.17;10.30;;;;;;;12.10;100.00;100887.97;12187883;19;20006;-80
2023/10/06 07:52:00;;;;;;;18.27;10.52;;;;;;;12.27;100.00;100868.81;12169730;19;20003;-80
2023/10/06 07:56:08;;;;;;;17.80;9.27;;;;;;;12.44;100.00;100882.81;12195530;19;20058;-80
2023/10/06 08:00:24;;;;;;;17.85;10.25;;;;;;;12.62;100.00;100877.19;12185196;19;20049;-80
2023/10/06 08:04:26;;;;;;;24.63;10.38;;;;;;;12.82;100.00;100876.88;12166547;19;20017;-81
2023/10/06 08:08:37;;;;;;;23.70;11.90;;;;;;;13.07;100.00;100879.41;12192121;19;20030;-80
2023/10/06 08:17:46;;;;;;;16.60;10.05;;;;;;;13.48;100.00;100888.69;12183520;19;20185;-79
2023/10/06 08:21:49;;;;;;;18.67;10.55;;;;;;;13.69;100.00;100892.75;12162448;19;20011;-79
2023/10/06 08:25:56;;;;;;;19.88;11.25;;;;;;;13.91;100.00;100879.91;12190841;19;20021;-78
2023/10/06 08:30:07;;;;;;;18.55;10.60;;;;;;;14.20;100.00;100887.41;12187947;19;20025;-79
2023/10/06 08:34:11;;;;;;;21.67;11.05;;;;;;;14.38;100.00;100884.41;12166147;19;20002;-79
2023/10/06 08:38:14;;;;;;;20.85;10.07;;;;;;;14.61;100.00;100888.19;12178130;19;20014;-78
2023/10/06 08:42:18;;;;;;;;;;;;;;;14.72;100.00;100879.81;12173740;19;20029;-79
2023/10/06 08:46:22;;;;;;;24.60;9.32;;;;;;;14.89;100.00;100890.06;12151724;19;19950;-79
2023/10/06 08:50:27;;;;;;;17.20;8.98;;;;;;;15.13;100.00;100880.44;12175100;19;20461;-79
2023/10/06 08:54:30;;;;;;;19.60;9.27;;;;;;;15.39;100.00;100884.44;12196325;19;20003;-79
2023/10/06 08:58:35;;;;;;;16.50;9.23;;;;;;;15.46;100.00;100876.75;12163676;19;20115;-79
2023/10/06 09:02:37;;;;;;;15.68;8.15;;;;;;;15.54;100.00;100869.94;12187885;19;20457;-79
2023/10/06 09:07:08;;;;;;;16.00;8.37;;;;;;;15.73;100.00;100870.47;12187349;19;20006;-79
2023/10/06 09:11:10;;;;;;;19.23;7.78;;;;;;;16.00;100.00;100867.75;12166178;19;20259;-80
2023/10/06 09:15:16;;;;;;;18.25;8.65;;;;;;;16.24;100.00;100861.91;12191407;19;20006;-79
2023/10/06 09:19:18;;;;;;;20.30;9.07;;;;;;;16.34;100.00;100864.81;12164837;19;20007;-79
2023/10/06 09:23:30;;;;;;;;;;;;;;;16.39;100.00;100851.78;12192844;19;20025;-79
2023/10/06 09:27:32;;;;;;;15.85;7.70;;;;;;;16.59;100.00;100841.94;12188582;19;20022;-79
2023/10/06 09:31:36;;;;;;;14.30;7.40;;;;;;;16.78;100.00;100845.22;12163567;19;20070;-79
2023/10/06 09:35:38;;;;;;;17.73;7.70;;;;;;;16.99;100.00;100849.00;12190505;19;20460;-79
2023/10/06 09:39:42;;;;;;;16.40;8.77;;;;;;;17.01;100.00;100853.19;12189413;19;20015;-79
2023/10/06 09:43:44;;;;;;;14.75;7.43;;;;;;;17.35;100.00;100846.44;12167367;19;20054;-78
2023/10/06 09:47:51;;;;;;;15.88;7.38;;;;;;;17.61;100.00;100847.38;12191055;19;20006;-78
2023/10/06 09:51:57;;;;;;;17.92;8.80;;;;;;;17.75;100.00;100838.25;12187071;19;20039;-79
2023/10/06 09:56:01;;;;;;;14.40;8.40;;;;;;;17.76;100.00;100842.72;12208033;19;20007;-79
2023/10/06 10:00:15;;;;;;;15.93;7.63;;;;;;;17.58;100.00;100840.44;12193866;19;20375;-79
2023/10/06 10:04:19;;;;;;;15.90;7.90;;;;;;;17.40;100.00;100849.22;12172314;19;20017;-79
2023/10/06 10:08:22;;;;;;;;;;;;;;;17.29;100.00;100834.41;12182078;19;20034;-79
2023/10/06 10:12:32;;;;;;;15.70;8.13;;;;;;;17.13;100.00;100836.25;12187127;19;19976;-78
2023/10/06 10:16:44;;;;;;;14.98;8.43;;;;;;;17.04;100.00;100826.72;12161787;19;20055;-78
2023/10/06 10:20:46;;;;;;;17.05;8.52;;;;;;;17.16;100.00;100819.00;12182194;19;20014;-78
2023/10/06 10:24:48;;;;;;;16.85;8.55;;;;;;;17.42;100.00;100813.59;12166045;19;20002;-78
2023/10/06 10:29:12;;;;;;;20.80;9.32;;;;;;;17.69;100.00;100816.22;12184952;19;20002;-78
2023/10/06 10:33:21;;;;;;;17.02;8.65;;;;;;;17.82;100.00;100809.31;12183446;19;20098;-78
2023/10/06 10:37:24;;;;;;;13.80;7.38;;;;;;;17.96;100.00;100805.72;12162495;19;20014;-78
2023/10/06 10:41:30;;;;;;;16.45;7.57;;;;;;;18.03;98.12;100816.66;12178460;19;20007;-78
2023/10/06 10:45:38;;;;;;;17.77;7.22;;;;;;;18.15;95.50;100803.28;12181906;19;20003;-78
2023/10/06 10:49:41;;;;;;;16.95;6.90;;;;;;;18.47;96.86;100804.13;12156233;19;20029;-78
2023/10/06 10:53:46;;;;;;;18.77;7.75;;;;;;;18.62;95.63;100807.78;12181699;19;20006;-79
2023/10/06 10:57:48;;;;;;;15.13;7.40;;;;;;;18.83;92.42;100796.66;12159806;19;20013;-78
2023/10/06 11:01:51;;;;;;;15.77;7.37;;;;;;;18.95;89.65;100790.72;12178686;19;20081;-79
2023/10/06 11:05:56;;;;;;;15.82;7.45;;;;;;;19.00;88.36;100788.78;12177315;19;20010;-79
2023/10/06 11:09:58;;;;;;;11.20;5.88;;;;;;;19.11;90.18;100784.00;12157285;19;20011;-79
2023/10/06 11:14:00;;;;;;;15.00;6.37;;;;;;;19.27;89.76;100773.63;12179212;19;21609;-79
2023/10/06 11:18:06;;;;;;;15.77;5.28;;;;;;;19.41;86.29;100763.50;12180406;19;20631;-78
2023/10/06 11:22:11;;;;;;;11.15;5.05;;;;;;;19.58;85.76;100774.34;12157138;19;20033;-77
2023/10/06 11:26:26;;;;;;;10.30;4.18;;;;;;;19.74;79.23;100764.78;12176214;19;20030;-77
2023/10/06 11:30:29;;;;;;;10.30;3.78;;;;;;;20.11;80.04;100763.44;12176655;19;20018;-78
2023/10/06 11:34:32;;;;;;;11.95;4.72;;;;;;;20.37;78.58;100752.88;12165816;19;20024;-77
2023/10/06 11:38:35;;;;;;;7.13;3.08;;;;;;;20.79;76.59;100744.97;12187768;19;20330;-79
2023/10/06 11:42:41;;;;;;;11.07;4.28;;;;;;;21.24;75.50;100738.03;12186520;19;20534;-78
2023/10/06 11:46:51;;;;;;;10.25;3.67;;;;;;;21.84;71.67;100735.59;12160439;19;20942;-80
2023/10/06 11:51:00;;;;;;;5.88;2.75;;;;;;;22.36;64.58;100730.03;12173546;19;20010;-79
2023/10/06 11:55:08;;;;;;;8.10;3.30;;;;;;;22.91;61.91;100718.09;12156029;19;20046;-79
2023/10/06 11:59:18;;;;;;;13.52;3.20;;;;;;;23.12;56.80;100708.13;12176231;19;20624;-79
2023/10/06 12:03:33;;;;;;;7.53;3.13;;;;;;;23.41;56.02;100705.00;12178421;19;20018;-79
2023/10/06 12:07:36;;;;;;;7.93;3.30;;;;;;;23.89;54.40;100700.88;12159834;19;20029;-79
2023/10/06 12:11:38;;;;;;;6.50;2.50;;;;;;;24.27;53.20;100706.13;12190627;19;20010;-80
2023/10/06 12:15:40;;;;;;;;;;;;;;;24.43;52.84;100700.97;12215102;19;20719;-80
2023/10/06 12:19:42;;;;;;;5.20;2.38;;;;;;;25.00;50.18;100682.19;12165996;19;20990;-76
2023/10/06 12:23:45;;;;;;;5.82;2.28;;;;;;;25.35;45.90;100681.50;12171868;19;20020;-77
2023/10/06 12:27:47;;;;;;;7.07;2.90;;;;;;;25.37;46.88;100679.16;12169722;19;20011;-80
2023/10/06 12:31:48;;;;;;;9.50;3.72;;;;;;;25.04;47.71;100670.25;12148533;19;20010;-77
2023/10/06 12:35:52;;;;;;;10.10;4.45;;;;;;;25.05;48.29;100663.47;12173595;19;20010;-78
2023/10/06 12:39:55;;;;;;;9.82;3.97;;;;;;;25.42;48.06;100665.75;12169744;19;20009;-79
2023/10/06 12:44:04;;;;;;;14.52;5.13;;;;;;;26.05;46.40;100666.31;12175042;19;20469;-78
2023/10/06 12:48:07;;;;;;;13.80;9.23;;;;;;;26.42;46.15;100651.81;12176472;19;20002;-78
2023/10/06 12:52:10;;;;;;;11.50;5.63;;;;;;;26.49;45.19;100647.31;12159292;19;20453;-77
2023/10/06 12:56:12;;;;;;;10.23;4.45;;;;;;;26.28;45.04;100637.88;12188284;19;20820;-77
2023/10/06 13:00:14;;;;;;;;;;;;;;;25.23;47.01;100634.19;12189916;19;20009;-78
2023/10/06 13:04:17;;;;;;;9.40;4.25;;;;;;;24.33;47.39;100640.91;12170159;19;19933;-78
2023/10/06 13:08:24;;;;;;;12.75;4.63;;;;;;;23.56;48.85;100639.13;12189269;19;20082;-80
2023/10/06 13:12:28;;;;;;;12.85;4.30;;;;;;;23.20;49.57;100641.88;12182586;19;20006;-80
2023/10/06 13:16:30;;;;;;;8.82;4.38;;;;;;;22.82;50.42;100636.50;12159254;19;20440;-79
2023/10/06 13:20:32;;;;;;;10.70;3.70;;;;;;;22.90;50.83;100626.47;12181453;19;20007;-80
2023/10/06 13:24:34;;;;;;;12.25;4.20;;;;;;;23.31;49.31;100614.38;12181182;19;20547;-79
2023/10/06 13:28:38;;;;;;;10.30;3.92;;;;;;;23.51;48.33;100605.47;12153664;19;20010;-79
2023/10/06 13:32:41;;;;;;;10.45;4.97;;;;;;;23.40;47.40;100604.06;12176079;19;20010;-79
2023/10/06 13:36:44;;;;;;;11.57;4.18;;;;;;;23.11;48.87;100593.19;12177935;19;20466;-79
2023/10/06 13:40:45;;;;;;;10.23;4.60;;;;;;;22.80;48.05;100598.59;12164287;19;20028;-79
2023/10/06 13:44:50;;;;;;;8.90;4.33;;;;;;;22.35;48.33;100604.81;12181661;19;19999;-78
2023/10/06 13:48:52;;;;;;;9.65;4.05;;;;;;;22.13;49.03;100601.81;12182867;19;21534;-79
2023/10/06 13:52:55;;;;;;;11.30;3.80;;;;;;;22.14;49.50;100593.09;12165174;19;20014;-79
2023/10/06 13:56:57;;;;;;;9.02;3.50;;;;;;;22.11;50.76;100590.91;12188648;19;20006;-79
2023/10/06 14:00:59;;;;;;;9.20;3.00;;;;;;;22.01;50.34;100605.09;12158558;19;20039;-78
2023/10/06 14:05:04;;;;;;;10.20;3.17;;;;;;;21.89;51.59;100593.53;12179117;19;20071;-79
2023/10/06 14:09:05;;;;;;;10.80;3.97;;;;;;;21.66;52.62;100606.56;12179164;19;20260;-79
2023/10/06 14:13:11;;;;;;;10.50;3.70;;;;;;;21.32;52.96;100591.59;12170062;19;20014;-80
2023/10/06 14:17:16;;;;;;;10.32;4.22;;;;;;;21.14;53.87;100587.63;12194527;19;20019;-79
2023/10/06 14:21:18;;;;;;;8.43;3.28;;;;;;;21.00;54.31;100589.53;12193336;19;20016;-80
2023/10/06 14:25:22;;;;;;;11.97;3.80;;;;;;;20.89;54.04;100590.81;12172240;19;20354;-79
2023/10/06 14:29:24;;;;;;;12.02;3.72;;;;;;;20.90;53.83;100587.69;12189134;19;20019;-79
2023/10/06 14:33:39;;;;;;;8.48;4.32;;;;;;;20.88;54.91;100587.19;12199627;19;20003;-80
2023/10/06 14:37:52;;;;;;;9.68;3.78;;;;;;;20.73;55.16;100580.91;12181337;19;20002;-79
2023/10/06 14:46:00;;;;;;;9.55;4.10;;;;;;;20.37;56.78;100578.50;12169190;19;20482;-80
2023/10/06 14:50:03;;;;;;;11.30;3.65;;;;;;;20.35;56.94;100578.81;12191852;19;21402;-80
2023/10/06 14:54:07;;;;;;;8.30;4.22;;;;;;;20.29;56.10;100577.19;12194172;19;20007;-80
2023/10/06 14:58:12;;;;;;;11.18;3.58;;;;;;;20.15;55.85;100573.44;12172348;19;20032;-79
2023/10/06 15:02:14;;;;;;;8.98;3.38;;;;;;;20.06;56.70;100576.03;12194294;19;20037;-79
2023/10/06 15:06:17;;;;;;;8.00;3.27;;;;;;;19.85;57.32;100572.59;12192591;19;20067;-79
2023/10/06 15:10:18;;;;;;;;;;;;;;;19.56;58.90;100575.31;12172623;19;20019;-79
2023/10/06 15:14:25;;;;;;;9.70;3.90;;;;;;;19.32;60.01;100561.22;12199606;19;19915;-80
2023/10/06 15:18:29;;;;;;;10.20;3.88;;;;;;;19.10;61.19;100562.50;12196922;19;20023;-80
2023/10/06 15:22:31;;;;;;;9.25;4.20;;;;;;;18.95;62.67;100570.97;12173230;19;20002;-79
2023/10/06 15:26:33;;;;;;;13.40;4.28;;;;;;;18.76;63.84;100565.16;12196485;19;20001;-79
2023/10/06 15:30:35;;;;;;;14.43;3.80;;;;;;;18.60;64.54;100567.16;12199482;19;20122;-79
2023/10/06 15:34:37;;;;;;;7.57;3.30;;;;;;;18.48;65.76;100554.66;12186411;19;20717;-79
2023/10/06 15:38:39;;;;;;;7.90;3.17;;;;;;;18.32;67.09;100556.66;12197465;19;20433;-79
2023/10/06 15:42:42;;;;;;;10.60;3.70;;;;;;;18.20;68.01;100565.31;12198284;19;20006;-79
2023/10/06 15:46:48;;;;;;;10.23;3.92;;;;;;;18.15;69.21;100552.25;12167041;19;20007;-79
2023/10/06 15:50:56;;;;;;;12.00;4.00;;;;;;;18.17;70.33;100550.00;12189593;19;20031;-79
2023/10/06 15:54:59;;;;;;;8.77;3.95;;;;;;;18.21;71.14;100548.31;12177155;19;20002;-79
2023/10/06 15:59:01;;;;;;;8.40;3.50;;;;;;;18.25;71.10;100545.78;12203753;19;20018;-79
2023/10/06 16:03:03;;;;;;;8.35;3.88;;;;;;;18.28;70.83;100541.59;12196365;19;20013;-79
2023/10/06 16:07:08;;;;;;;17.17;4.88;;;;;;;18.32;70.80;100534.31;12173774;19;20022;-79
2023/10/06 16:11:10;;;;;;;10.80;3.92;;;;;;;18.32;70.69;100545.50;12192869;19;20786;-79
2023/10/06 16:15:13;;;;;;;7.57;3.58;;;;;;;18.32;72.10;100549.13;12194786;19;20010;-79
2023/10/06 16:19:17;;;;;;;9.90;3.60;;;;;;;18.28;73.39;100549.97;12171528;19;20045;-79
2023/10/06 16:23:23;;;;;;;;;;;;;;;18.15;74.59;100554.19;12190327;19;20019;-79
2023/10/06 16:27:26;;;;;;;10.27;4.15;;;;;;;17.97;74.67;100550.88;12188056;19;19906;-79
2023/10/06 16:31:29;;;;;;;11.77;4.47;;;;;;;17.79;77.12;100553.38;12165508;19;20477;-80
2023/10/06 16:35:35;;;;;;;11.57;3.78;;;;;;;17.58;79.32;100550.59;12192615;19;20506;-80
2023/10/06 16:39:37;;;;;;;12.00;4.68;;;;;;;17.32;81.78;100549.75;12180788;19;20017;-79
2023/10/06 16:43:40;;;;;;;11.47;4.27;;;;;;;17.13;83.45;100551.38;12159095;19;20009;-79
2023/10/06 16:47:42;;;;;;;11.18;4.45;;;;;;;16.97;84.08;100542.16;12182891;19;20366;-80
2023/10/06 16:51:45;;;;;;;12.37;4.23;;;;;;;16.78;84.82;100536.25;12177736;19;20014;-79
2023/10/06 16:55:58;;;;;;;9.90;4.05;;;;;;;16.63;86.59;100548.16;12166085;19;20002;-80
2023/10/06 17:00:04;;;;;;;10.65;4.03;;;;;;;16.43;88.05;100551.66;12179787;19;21137;-80
2023/10/06 17:04:06;;;;;;;13.68;4.80;;;;;;;16.23;90.49;100544.03;12168200;19;20072;-79
2023/10/06 17:08:08;;;;;;;15.30;5.35;;;;;;;16.08;90.94;100549.53;12182128;19;20007;-80
2023/10/06 17:12:10;;;;;;;15.95;3.97;;;;;;;15.94;91.24;100544.44;12182835;19;20015;-78
2023/10/06 17:16:13;;;;;;;10.60;4.30;;;;;;;15.81;92.35;100563.50;12173455;19;20014;-80
2023/10/06 17:20:17;;;;;;;13.00;5.47;;;;;;;15.66;94.31;100559.47;12190902;19;20011;-78
2023/10/06 17:24:19;;;;;;;9.60;3.92;;;;;;;15.52;96.17;100562.97;12189631;19;20030;-79
2023/10/06 17:28:21;;;;;;;10.68;4.20;;;;;;;15.38;98.10;100565.34;12164304;19;20007;-78
2023/10/06 17:32:23;;;;;;;15.35;4.90;;;;;;;15.27;99.86;100573.56;12184726;19;20006;-79
2023/10/06 17:36:27;;;;;;;12.03;5.07;;;;;;;15.17;100.00;100570.69;12192051;19;20007;-79
2023/10/06 17:40:29;;;;;;;13.60;4.72;;;;;;;15.10;100.00;100577.53;12170209;19;20010;-79
2023/10/06 17:44:31;;;;;;;8.65;4.50;;;;;;;15.01;100.00;100577.16;12196281;19;20007;-79
2023/10/06 17:48:33;;;;;;;9.80;3.93;;;;;;;14.94;100.00;100579.31;12197357;19;20063;-78
2023/10/06 17:52:35;;;;;;;12.20;4.47;;;;;;;14.88;100.00;100572.03;12164031;19;20018;-79
2023/10/06 17:56:41;;;;;;;13.95;5.05;;;;;;;14.80;100.00;100565.84;12197008;19;20006;-79
2023/10/06 18:00:43;;;;;;;13.15;5.07;;;;;;;14.79;100.00;100569.72;12188394;19;20002;-79
2023/10/06 18:04:46;;;;;;;9.90;5.03;;;;;;;14.76;100.00;100569.41;12183887;19;20007;-79
2023/10/06 18:08:48;;;;;;;11.27;4.30;;;;;;;14.70;100.00;100579.59;12214369;19;20114;-79
2023/10/06 18:12:50;;;;;;;12.52;4.95;;;;;;;14.66;100.00;100570.09;12206615;19;20040;-79
2023/10/06 18:16:55;;;;;;;10.90;4.25;;;;;;;14.63;100.00;100570.63;12177759;19;20496;-79
2023/10/06 18:20:59;;;;;;;15.00;5.38;;;;;;;14.59;100.00;100570.28;12191778;19;20545;-79
2023/10/06 18:25:01;;;;;;;12.60;6.00;;;;;;;14.59;100.00;100569.47;12177624;19;20020;-79
2023/10/06 18:29:04;;;;;;;10.13;5.13;;;;;;;14.53;100.00;100571.31;12223706;19;20010;-78
2023/10/06 18:33:05;;;;;;;10.52;4.85;;;;;;;14.50;100.00;100580.13;12237896;19;19999;-78
2023/10/06 18:37:07;;;;;;;13.40;4.43;;;;;;;14.46;100.00;100565.13;12205100;19;20011;-78